createdAt,value
2019-04-04T00:06:40.895Z,65.90
2019-04-04T00:13:25.892Z,67.60
2019-04-04T00:20:10.975Z,68.10
2019-04-04T00:26:57.295Z,69.60
2019-04-04T00:33:42.271Z,70.20
2019-04-04T00:40:27.191Z,70.60
2019-04-04T00:47:12.298Z,68.10
2019-04-04T00:53:57.144Z,66.90
2019-04-04T01:00:42.244Z,67.70
2019-04-04T01:07:27.204Z,68.30
2019-04-04T01:14:12.321Z,69.30
2019-04-04T01:20:57.178Z,69.50
2019-04-04T01:27:42.379Z,69.50
2019-04-04T01:34:28.346Z,69.40
2019-04-04T01:41:13.434Z,69.20
2019-04-04T01:47:58.275Z,70.10
2019-04-04T01:54:43.325Z,71.00
2019-04-04T02:01:28.809Z,70.60
2019-04-04T02:08:13.904Z,71.40
2019-04-04T02:14:58.838Z,72.10
2019-04-04T02:21:43.679Z,71.40
2019-04-04T02:28:28.523Z,72.40
2019-04-04T02:35:13.622Z,73.30
2019-04-04T02:41:58.547Z,74.00
2019-04-04T02:48:43.631Z,74.50
2019-04-04T02:55:31.208Z,74.70
2019-04-04T03:02:16.301Z,75.00
2019-04-04T03:09:01.359Z,74.50
2019-04-04T03:15:48.326Z,73.90
2019-04-04T03:22:33.311Z,72.50
2019-04-04T03:29:18.158Z,72.30
2019-04-04T03:36:04.094Z,71.50
2019-04-04T03:42:49.258Z,70.60
2019-04-04T03:49:34.114Z,72.00
2019-04-04T03:56:19.037Z,70.70
2019-04-04T04:03:03.968Z,69.80
2019-04-04T04:09:48.913Z,69.70
2019-04-04T04:16:35.955Z,70.00
2019-04-04T04:23:23.862Z,69.80
2019-04-04T04:30:08.049Z,70.00
2019-04-04T04:36:52.946Z,71.20
2019-04-04T04:43:37.891Z,70.30
2019-04-04T04:50:22.835Z,68.70
2019-04-04T04:57:07.747Z,67.90
2019-04-04T05:03:54.175Z,68.40
2019-04-04T05:10:39.580Z,68.60
2019-04-04T05:17:24.438Z,69.90
2019-04-04T05:24:09.463Z,68.70
2019-04-04T05:30:54.331Z,67.70
2019-04-04T05:37:39.342Z,68.30
2019-04-04T05:44:24.388Z,67.80
2019-04-04T05:51:09.324Z,68.90
2019-04-04T05:57:54.276Z,69.70
2019-04-04T06:04:39.135Z,70.40
2019-04-04T06:11:23.996Z,72.10
2019-04-04T06:18:10.973Z,72.70
2019-04-04T06:24:59.115Z,69.50
2019-04-04T06:31:42.074Z,69.20
2019-04-04T06:38:26.932Z,69.60
2019-04-04T06:45:15.135Z,69.20
2019-04-04T06:51:58.504Z,69.10
2019-04-04T06:58:43.362Z,68.50
2019-04-04T07:05:28.518Z,67.50
2019-04-04T07:12:22.220Z,65.80
2019-04-04T07:19:00.029Z,66.20
2019-04-04T07:25:44.883Z,65.80
2019-04-04T07:32:29.746Z,65.50
2019-04-04T07:39:14.608Z,65.40
2019-04-04T07:46:01.431Z,65.40
2019-04-04T07:52:46.021Z,65.30
2019-04-04T07:59:31.289Z,64.80
2019-04-04T08:06:16.311Z,64.20
2019-04-04T08:13:01.168Z,63.90
2019-04-04T08:19:46.028Z,64.80
2019-04-04T08:26:30.882Z,65.30
2019-04-04T08:33:15.779Z,64.60
2019-04-04T08:40:00.643Z,64.60
2019-04-04T08:46:45.569Z,64.00
2019-04-04T08:53:39.748Z,63.20
2019-04-04T09:00:17.279Z,61.60
2019-04-04T09:07:02.207Z,61.00
2019-04-04T09:13:47.139Z,60.80
2019-04-04T09:20:32.233Z,61.60
2019-04-04T09:27:18.519Z,61.80
2019-04-04T09:34:03.739Z,61.90
2019-04-04T09:40:48.740Z,62.60
2019-04-04T09:47:33.671Z,61.90
2019-04-04T09:54:19.516Z,61.70
2019-04-04T10:01:06.582Z,62.00
2019-04-04T10:07:51.550Z,60.50
2019-04-04T10:14:37.359Z,61.00
2019-04-04T10:21:22.319Z,61.30
2019-04-04T10:28:07.350Z,62.60
2019-04-04T10:34:52.281Z,62.50
2019-04-04T10:41:37.410Z,62.20
2019-04-04T10:48:22.278Z,62.10
2019-04-04T10:55:07.677Z,63.00
2019-04-04T11:01:52.983Z,63.40
2019-04-04T11:08:38.086Z,64.00
2019-04-04T11:15:23.191Z,63.70
2019-04-04T11:22:09.468Z,64.10
2019-04-04T11:28:54.385Z,63.90
2019-04-04T11:35:39.230Z,61.80
2019-04-04T11:42:24.230Z,60.10
2019-04-04T11:49:09.150Z,60.50
2019-04-04T11:55:54.417Z,60.50
2019-04-04T12:02:39.450Z,61.00
2019-04-04T12:09:24.336Z,60.30
2019-04-04T12:16:09.244Z,58.80
2019-04-04T12:22:55.032Z,59.50
2019-04-04T12:29:40.111Z,60.00
2019-04-04T12:36:26.047Z,60.70
2019-04-04T12:43:13.575Z,59.20
2019-04-04T12:49:58.419Z,59.00
2019-04-04T12:56:43.588Z,57.30
2019-04-04T13:03:28.479Z,57.20
2019-04-04T13:10:13.966Z,57.50
2019-04-04T13:16:58.951Z,57.30
2019-04-04T13:23:43.980Z,56.30
2019-04-04T13:30:28.827Z,57.10
2019-04-04T13:37:13.679Z,57.10
2019-04-04T13:43:58.541Z,58.10
2019-04-04T13:50:43.510Z,57.80
2019-04-04T13:57:28.375Z,58.10
2019-04-04T14:04:13.291Z,57.70
2019-04-04T14:10:59.350Z,59.70
2019-04-04T14:17:44.374Z,60.50
2019-04-04T14:24:30.627Z,59.60
2019-04-04T14:31:15.472Z,58.00
2019-04-04T14:38:00.327Z,58.00
2019-04-04T14:44:45.175Z,56.80
2019-04-04T14:51:30.023Z,55.00
2019-04-04T14:58:15.055Z,53.70
2019-04-04T15:05:00.239Z,52.90
2019-04-04T15:11:45.087Z,52.00
2019-04-04T15:18:29.936Z,53.20
2019-04-04T15:25:14.783Z,53.50
2019-04-04T15:32:00.347Z,51.40
2019-04-04T15:38:45.266Z,46.80
2019-04-04T15:45:30.118Z,46.90
2019-04-04T15:52:14.975Z,49.40
2019-04-04T15:59:00.384Z,51.20
2019-04-04T16:05:45.476Z,50.90
2019-04-04T16:12:30.398Z,51.10
2019-04-04T16:19:15.872Z,50.60
2019-04-04T16:26:00.863Z,51.50
2019-04-04T16:32:45.975Z,51.50
2019-04-04T16:39:30.887Z,51.70
2019-04-04T16:46:15.799Z,51.90
2019-04-04T16:53:00.642Z,52.40
2019-04-04T16:59:45.559Z,53.00
2019-04-04T17:06:30.570Z,53.50
2019-04-04T17:13:15.507Z,54.00
2019-04-04T17:20:00.856Z,54.80
2019-04-04T17:26:45.918Z,56.00
2019-04-04T17:33:31.143Z,55.60
2019-04-04T17:40:16.328Z,55.90
2019-04-04T17:47:01.251Z,56.40
2019-04-04T17:53:47.079Z,56.70
2019-04-04T18:00:32.756Z,56.80
2019-04-04T18:07:17.724Z,57.00
2019-04-04T18:14:02.711Z,57.50
2019-04-04T18:20:47.719Z,59.40
2019-04-04T18:27:33.698Z,60.50
2019-04-04T18:34:18.890Z,60.70
2019-04-04T18:41:04.695Z,61.10
2019-04-04T18:47:49.738Z,61.80
2019-04-04T18:54:34.887Z,62.10
2019-04-04T19:01:20.079Z,61.80
2019-04-04T19:08:05.623Z,61.60
2019-04-04T19:14:52.223Z,62.20
2019-04-04T19:21:38.043Z,62.10
2019-04-04T19:28:23.220Z,61.90
2019-04-04T19:35:08.783Z,61.30
2019-04-04T19:41:53.719Z,61.50
2019-04-04T19:48:39.059Z,61.30
2019-04-04T19:55:24.202Z,61.30
2019-04-04T20:02:09.363Z,61.30
2019-04-04T20:08:55.066Z,61.30
2019-04-04T20:15:40.993Z,61.40
2019-04-04T20:22:26.576Z,61.20
2019-04-04T20:29:12.491Z,61.30
2019-04-04T20:35:59.303Z,61.20
2019-04-04T20:42:44.545Z,61.00
2019-04-04T20:49:29.559Z,60.70
2019-04-04T20:56:14.849Z,60.60
2019-04-04T21:03:00.507Z,60.60
2019-04-04T21:09:45.918Z,60.50
2019-04-04T21:16:31.559Z,60.60
2019-04-04T21:23:16.730Z,60.70
2019-04-04T21:30:01.591Z,60.40
2019-04-04T21:36:46.435Z,60.10
2019-04-04T21:43:31.287Z,59.80
2019-04-04T21:50:16.242Z,59.70
2019-04-04T21:57:01.409Z,59.70
2019-04-04T22:03:46.419Z,60.00
2019-04-04T22:10:31.259Z,59.80
2019-04-04T22:17:16.104Z,60.00
2019-04-04T22:24:00.952Z,60.00
2019-04-04T22:30:45.884Z,60.10
2019-04-04T22:37:30.795Z,60.10
2019-04-04T22:44:15.709Z,60.50
2019-04-04T22:51:00.550Z,60.50
2019-04-04T22:57:46.472Z,60.00
2019-04-04T23:04:32.384Z,59.80
2019-04-04T23:11:17.986Z,60.40
2019-04-04T23:18:03.087Z,60.20
2019-04-04T23:24:48.214Z,59.80
2019-04-04T23:31:33.690Z,60.10
2019-04-04T23:38:19.123Z,59.20
2019-04-04T23:45:06.228Z,59.80
2019-04-04T23:51:51.402Z,59.70
2019-04-04T23:58:37.308Z,59.50
